sensor_id;sensor_type;location;lat;lon;timestamp;pressure;altitude;pressure_sealevel;temperature;humidity
64025;BME280;50266;57.446;26.936;2023-11-22T00:00:40;99919.75;;;-9.12;100.0
64025;BME280;50266;57.446;26.936;2023-11-22T00:01:40;99914.75;;;-9.1;100.0
64025;BME280;50266;57.446;26.936;2023-11-22T00:02:40;99921.98;;;-9.08;100.0
64025;BME280;50266;57.446;26.936;2023-11-22T00:03:40;99923.89;;;-9.03;100.0
64025;BME280;50266;57.446;26.936;2023-11-22T00:04:40;99919.13;;;-9.05;100.0
64025;BME280;50266;57.446;26.936;2023-11-22T00:05:40;99916.92;;;-9.06;100.0
64025;BME280;50266;57.446;26.936;2023-11-22T00:06:40;99915.88;;;-9.04;100.0
64025;BME280;50266;57.446;26.936;2023-11-22T00:07:40;99920.0;;;-9.02;100.0
64025;BME280;50266;57.446;26.936;2023-11-22T00:08:40;99915.73;;;-8.98;100.0
64025;BME280;50266;57.446;26.936;2023-11-22T00:09:40;99918.98;;;-8.99;100.0
64025;BME280;50266;57.446;26.936;2023-11-22T00:10:40;99917.47;;;-9.03;100.0
64025;BME280;50266;57.446;26.936;2023-11-22T00:11:40;99919.39;;;-9.06;100.0
64025;BME280;50266;57.446;26.936;2023-11-22T00:12:40;99920.44;;;-9.05;100.0
64025;BME280;50266;57.446;26.936;2023-11-22T00:13:40;99917.91;;;-9.0;100.0
64025;BME280;50266;57.446;26.936;2023-11-22T00:14:40;99919.44;;;-8.95;100.0
64025;BME280;50266;57.446;26.936;2023-11-22T00:15:40;99920.02;;;-8.96;100.0
64025;BME280;50266;57.446;26.936;2023-11-22T00:16:40;99917.66;;;-8.91;100.0
64025;BME280;50266;57.446;26.936;2023-11-22T00:17:40;99923.08;;;-8.88;100.0
64025;BME280;50266;57.446;26.936;2023-11-22T00:18:40;99919.73;;;-8.92;100.0
64025;BME280;50266;57.446;26.936;2023-11-22T00:19:40;99922.61;;;-8.95;100.0
64025;BME280;50266;57.446;26.936;2023-11-22T00:20:40;99921.64;;;-8.95;100.0
64025;BME280;50266;57.446;26.936;2023-11-22T00:21:40;99919.62;;;-8.94;100.0
64025;BME280;50266;57.446;26.936;2023-11-22T00:22:40;99921.16;;;-8.95;100.0
64025;BME280;50266;57.446;26.936;2023-11-22T00:23:40;99921.88;;;-8.94;100.0
64025;BME280;50266;57.446;26.936;2023-11-22T00:24:40;99919.52;;;-8.89;100.0
64025;BME280;50266;57.446;26.936;2023-11-22T00:25:40;99920.13;;;-8.88;100.0
64025;BME280;50266;57.446;26.936;2023-11-22T00:26:40;99919.26;;;-8.92;100.0
64025;BME280;50266;57.446;26.936;2023-11-22T00:27:40;99921.25;;;-8.93;100.0
64025;BME280;50266;57.446;26.936;2023-11-22T00:28:40;99919.57;;;-8.94;100.0
64025;BME280;50266;57.446;26.936;2023-11-22T00:29:40;99922.09;;;-9.0;100.0
64025;BME280;50266;57.446;26.936;2023-11-22T00:30:40;99919.48;;;-8.99;100.0
64025;BME280;50266;57.446;26.936;2023-11-22T00:31:40;99923.03;;;-8.95;100.0
64025;BME280;50266;57.446;26.936;2023-11-22T00:32:40;99931.16;;;-8.94;100.0
64025;BME280;50266;57.446;26.936;2023-11-22T00:33:40;99924.32;;;-8.95;100.0
64025;BME280;50266;57.446;26.936;2023-11-22T00:34:40;99925.08;;;-8.95;100.0
64025;BME280;50266;57.446;26.936;2023-11-22T00:35:40;99925.04;;;-8.94;100.0
64025;BME280;50266;57.446;26.936;2023-11-22T00:36:40;99920.55;;;-8.96;100.0
64025;BME280;50266;57.446;26.936;2023-11-22T00:37:40;99922.5;;;-8.95;100.0
64025;BME280;50266;57.446;26.936;2023-11-22T00:38:40;99922.61;;;-8.95;100.0
64025;BME280;50266;57.446;26.936;2023-11-22T00:39:40;99924.3;;;-8.92;100.0
64025;BME280;50266;57.446;26.936;2023-11-22T00:40:40;99925.78;;;-8.9;100.0
64025;BME280;50266;57.446;26.936;2023-11-22T00:41:40;99924.2;;;-8.92;100.0
64025;BME280;50266;57.446;26.936;2023-11-22T00:42:40;99924.41;;;-8.92;100.0
64025;BME280;50266;57.446;26.936;2023-11-22T00:43:40;99919.27;;;-8.91;100.0
64025;BME280;50266;57.446;26.936;2023-11-22T00:44:40;99920.3;;;-8.88;100.0
64025;BME280;50266;57.446;26.936;2023-11-22T00:45:40;99916.48;;;-8.85;100.0
64025;BME280;50266;57.446;26.936;2023-11-22T00:46:40;99911.36;;;-8.87;100.0
64025;BME280;50266;57.446;26.936;2023-11-22T00:47:40;99915.75;;;-8.85;100.0
64025;BME280;50266;57.446;26.936;2023-11-22T00:48:40;99916.86;;;-8.83;100.0
64025;BME280;50266;57.446;26.936;2023-11-22T00:49:40;99917.77;;;-8.8;100.0
64025;BME280;50266;57.446;26.936;2023-11-22T00:50:40;99918.98;;;-8.81;100.0
64025;BME280;50266;57.446;26.936;2023-11-22T00:51:40;99924.77;;;-8.79;100.0
64025;BME280;50266;57.446;26.936;2023-11-22T00:52:40;99919.35;;;-8.84;100.0
64025;BME280;50266;57.446;26.936;2023-11-22T00:53:40;99918.11;;;-8.82;100.0
64025;BME280;50266;57.446;26.936;2023-11-22T00:54:40;99921.66;;;-8.84;100.0
64025;BME280;50266;57.446;26.936;2023-11-22T00:55:40;99917.77;;;-8.86;100.0
64025;BME280;50266;57.446;26.936;2023-11-22T00:56:40;99919.77;;;-8.82;100.0
64025;BME280;50266;57.446;26.936;2023-11-22T00:57:40;99915.11;;;-8.81;100.0
64025;BME280;50266;57.446;26.936;2023-11-22T00:58:40;99915.25;;;-8.83;100.0
64025;BME280;50266;57.446;26.936;2023-11-22T00:59:40;99916.48;;;-8.85;100.0
64025;BME280;50266;57.446;26.936;2023-11-22T01:00:40;99916.28;;;-8.85;100.0
64025;BME280;50266;57.446;26.936;2023-11-22T01:01:40;99910.14;;;-8.89;100.0
64025;BME280;50266;57.446;26.936;2023-11-22T01:02:40;99911.96;;;-8.89;100.0
64025;BME280;50266;57.446;26.936;2023-11-22T01:03:40;99910.02;;;-8.92;100.0
64025;BME280;50266;57.446;26.936;2023-11-22T01:04:40;99908.64;;;-8.93;100.0
64025;BME280;50266;57.446;26.936;2023-11-22T01:05:40;99906.0;;;-8.94;100.0
64025;BME280;50266;57.446;26.936;2023-11-22T01:06:40;99906.91;;;-8.92;100.0
64025;BME280;50266;57.446;26.936;2023-11-22T01:07:40;99903.6;;;-8.93;100.0
64025;BME280;50266;57.446;26.936;2023-11-22T01:08:40;99907.9;;;-8.93;100.0
64025;BME280;50266;57.446;26.936;2023-11-22T01:09:40;99906.19;;;-8.98;100.0
64025;BME280;50266;57.446;26.936;2023-11-22T01:10:41;99907.0;;;-9.01;100.0
64025;BME280;50266;57.446;26.936;2023-11-22T01:11:40;99907.69;;;-9.01;100.0
64025;BME280;50266;57.446;26.936;2023-11-22T01:12:41;99909.67;;;-9.01;100.0
64025;BME280;50266;57.446;26.936;2023-11-22T01:13:40;99911.52;;;-8.97;100.0
64025;BME280;50266;57.446;26.936;2023-11-22T01:14:41;99912.62;;;-9.01;100.0
64025;BME280;50266;57.446;26.936;2023-11-22T01:15:41;99912.91;;;-9.0;100.0
64025;BME280;50266;57.446;26.936;2023-11-22T01:16:41;99911.73;;;-9.03;100.0
64025;BME280;50266;57.446;26.936;2023-11-22T01:17:41;99913.95;;;-9.04;100.0
64025;BME280;50266;57.446;26.936;2023-11-22T01:18:42;99916.99;;;-9.05;100.0
64025;BME280;50266;57.446;26.936;2023-11-22T01:19:42;99922.02;;;-9.09;100.0
64025;BME280;50266;57.446;26.936;2023-11-22T01:20:42;99919.09;;;-9.1;100.0
64025;BME280;50266;57.446;26.936;2023-11-22T01:21:42;99921.44;;;-9.11;100.0
64025;BME280;50266;57.446;26.936;2023-11-22T01:22:42;99919.02;;;-9.11;100.0
64025;BME280;50266;57.446;26.936;2023-11-22T01:23:47;99923.78;;;-9.12;100.0
64025;BME280;50266;57.446;26.936;2023-11-22T01:24:44;99922.42;;;-9.12;100.0
64025;BME280;50266;57.446;26.936;2023-11-22T01:25:44;99926.29;;;-9.14;100.0
64025;BME280;50266;57.446;26.936;2023-11-22T01:26:44;99928.03;;;-9.15;100.0
64025;BME280;50266;57.446;26.936;2023-11-22T01:27:44;99930.16;;;-9.14;100.0
64025;BME280;50266;57.446;26.936;2023-11-22T01:28:44;99932.91;;;-9.16;100.0
64025;BME280;50266;57.446;26.936;2023-11-22T01:29:44;99931.54;;;-9.17;100.0
64025;BME280;50266;57.446;26.936;2023-11-22T01:30:44;99931.73;;;-9.21;100.0
64025;BME280;50266;57.446;26.936;2023-11-22T01:31:44;99932.31;;;-9.21;100.0
64025;BME280;50266;57.446;26.936;2023-11-22T01:32:44;99930.56;;;-9.2;100.0
64025;BME280;50266;57.446;26.936;2023-11-22T01:33:44;99934.47;;;-9.18;100.0
64025;BME280;50266;57.446;26.936;2023-11-22T01:34:44;99936.52;;;-9.2;100.0
64025;BME280;50266;57.446;26.936;2023-11-22T01:35:44;99936.03;;;-9.2;100.0
64025;BME280;50266;57.446;26.936;2023-11-22T01:36:44;99936.27;;;-9.19;100.0
64025;BME280;50266;57.446;26.936;2023-11-22T01:37:44;99934.12;;;-9.19;100.0
64025;BME280;50266;57.446;26.936;2023-11-22T01:38:44;99935.29;;;-9.19;100.0
64025;BME280;50266;57.446;26.936;2023-11-22T01:39:44;99936.66;;;-9.18;100.0
64025;BME280;50266;57.446;26.936;2023-11-22T01:40:45;99939.59;;;-9.12;100.0
64025;BME280;50266;57.446;26.936;2023-11-22T01:41:44;99939.3;;;-9.11;100.0
64025;BME280;50266;57.446;26.936;2023-11-22T01:42:44;99941.69;;;-9.1;100.0
64025;BME280;50266;57.446;26.936;2023-11-22T01:43:44;99942.0;;;-9.1;100.0
64025;BME280;50266;57.446;26.936;2023-11-22T01:44:44;99944.71;;;-9.11;100.0
64025;BME280;50266;57.446;26.936;2023-11-22T01:45:45;99942.95;;;-9.1;100.0
64025;BME280;50266;57.446;26.936;2023-11-22T01:46:44;99942.15;;;-9.1;100.0
64025;BME280;50266;57.446;26.936;2023-11-22T01:47:44;99940.59;;;-9.11;100.0
64025;BME280;50266;57.446;26.936;2023-11-22T01:48:45;99942.95;;;-9.13;100.0
64025;BME280;50266;57.446;26.936;2023-11-22T01:49:45;99941.39;;;-9.13;100.0
64025;BME280;50266;57.446;26.936;2023-11-22T01:50:45;99943.59;;;-9.15;100.0
64025;BME280;50266;57.446;26.936;2023-11-22T01:51:45;99945.5;;;-9.16;100.0
64025;BME280;50266;57.446;26.936;2023-11-22T01:52:45;99942.38;;;-9.16;100.0
64025;BME280;50266;57.446;26.936;2023-11-22T01:53:45;99940.08;;;-9.19;100.0
64025;BME280;50266;57.446;26.936;2023-11-22T01:54:45;99932.98;;;-9.22;100.0
64025;BME280;50266;57.446;26.936;2023-11-22T01:55:45;99932.36;;;-9.24;100.0
64025;BME280;50266;57.446;26.936;2023-11-22T01:56:45;99928.47;;;-9.28;100.0
64025;BME280;50266;57.446;26.936;2023-11-22T01:57:45;99933.23;;;-9.28;100.0
64025;BME280;50266;57.446;26.936;2023-11-22T01:58:45;99927.81;;;-9.29;100.0
64025;BME280;50266;57.446;26.936;2023-11-22T01:59:45;99925.09;;;-9.3;100.0
64025;BME280;50266;57.446;26.936;2023-11-22T02:00:51;99923.86;;;-9.35;100.0
64025;BME280;50266;57.446;26.936;2023-11-22T02:01:48;99928.19;;;-9.35;100.0
64025;BME280;50266;57.446;26.936;2023-11-22T02:02:48;99925.67;;;-9.38;100.0
64025;BME280;50266;57.446;26.936;2023-11-22T02:03:48;99929.31;;;-9.41;100.0
64025;BME280;50266;57.446;26.936;2023-11-22T02:04:48;99930.59;;;-9.46;100.0
64025;BME280;50266;57.446;26.936;2023-11-22T02:05:48;99933.5;;;-9.47;100.0
64025;BME280;50266;57.446;26.936;2023-11-22T02:06:48;99937.57;;;-9.5;100.0
64025;BME280;50266;57.446;26.936;2023-11-22T02:07:48;99937.27;;;-9.55;100.0
64025;BME280;50266;57.446;26.936;2023-11-22T02:08:48;99932.87;;;-9.61;100.0
64025;BME280;50266;57.446;26.936;2023-11-22T02:09:48;99937.31;;;-9.66;100.0
64025;BME280;50266;57.446;26.936;2023-11-22T02:10:58;99939.64;;;-9.67;100.0
64025;BME280;50266;57.446;26.936;2023-11-22T02:11:53;99941.83;;;-9.61;100.0
64025;BME280;50266;57.446;26.936;2023-11-22T02:12:53;99938.3;;;-9.65;100.0
64025;BME280;50266;57.446;26.936;2023-11-22T02:13:53;99939.47;;;-9.63;100.0
64025;BME280;50266;57.446;26.936;2023-11-22T02:14:53;99945.39;;;-9.59;100.0
64025;BME280;50266;57.446;26.936;2023-11-22T02:15:56;99944.44;;;-9.61;100.0
64025;BME280;50266;57.446;26.936;2023-11-22T02:16:53;99944.95;;;-9.64;100.0
64025;BME280;50266;57.446;26.936;2023-11-22T02:17:53;99949.92;;;-9.6;100.0
64025;BME280;50266;57.446;26.936;2023-11-22T02:18:58;99951.98;;;-9.62;100.0
64025;BME280;50266;57.446;26.936;2023-11-22T02:19:58;99952.8;;;-9.63;100.0
64025;BME280;50266;57.446;26.936;2023-11-22T02:20:58;99952.94;;;-9.64;100.0
64025;BME280;50266;57.446;26.936;2023-11-22T02:21:58;99953.96;;;-9.69;100.0
64025;BME280;50266;57.446;26.936;2023-11-22T02:23:04;99950.23;;;-9.73;100.0
64025;BME280;50266;57.446;26.936;2023-11-22T02:23:59;99959.91;;;-9.76;100.0
64025;BME280;50266;57.446;26.936;2023-11-22T02:24:59;99955.8;;;-9.79;100.0
64025;BME280;50266;57.446;26.936;2023-11-22T02:25:59;99949.84;;;-9.84;100.0
64025;BME280;50266;57.446;26.936;2023-11-22T02:26:59;99951.04;;;-9.85;100.0
64025;BME280;50266;57.446;26.936;2023-11-22T02:27:59;99950.11;;;-9.8;100.0
64025;BME280;50266;57.446;26.936;2023-11-22T02:28:59;99958.03;;;-9.84;100.0
64025;BME280;50266;57.446;26.936;2023-11-22T02:29:59;99954.68;;;-9.88;100.0
64025;BME280;50266;57.446;26.936;2023-11-22T02:30:59;99951.08;;;-9.84;100.0
64025;BME280;50266;57.446;26.936;2023-11-22T02:31:59;99951.5;;;-9.86;100.0
64025;BME280;50266;57.446;26.936;2023-11-22T02:32:59;99949.33;;;-9.87;100.0
64025;BME280;50266;57.446;26.936;2023-11-22T02:33:59;99950.88;;;-9.92;100.0
64025;BME280;50266;57.446;26.936;2023-11-22T02:34:59;99954.48;;;-9.96;100.0
64025;BME280;50266;57.446;26.936;2023-11-22T02:35:59;99952.14;;;-9.97;100.0
64025;BME280;50266;57.446;26.936;2023-11-22T02:36:59;99951.34;;;-10.01;100.0
64025;BME280;50266;57.446;26.936;2023-11-22T02:37:59;99946.98;;;-10.04;100.0
64025;BME280;50266;57.446;26.936;2023-11-22T02:38:59;99949.02;;;-10.04;100.0
64025;BME280;50266;57.446;26.936;2023-11-22T02:40:06;99948.57;;;-10.07;100.0
64025;BME280;50266;57.446;26.936;2023-11-22T02:41:04;99949.22;;;-10.09;100.0
64025;BME280;50266;57.446;26.936;2023-11-22T02:42:04;99946.63;;;-10.1;100.0
64025;BME280;50266;57.446;26.936;2023-11-22T02:43:04;99950.34;;;-10.12;100.0
64025;BME280;50266;57.446;26.936;2023-11-22T02:44:04;99952.39;;;-10.13;100.0
64025;BME280;50266;57.446;26.936;2023-11-22T02:45:05;99952.35;;;-10.1;100.0
64025;BME280;50266;57.446;26.936;2023-11-22T02:46:04;99952.09;;;-10.1;100.0
64025;BME280;50266;57.446;26.936;2023-11-22T02:47:04;99953.4;;;-10.09;100.0
64025;BME280;50266;57.446;26.936;2023-11-22T02:48:04;99954.2;;;-10.09;100.0
64025;BME280;50266;57.446;26.936;2023-11-22T02:49:04;99953.22;;;-10.12;100.0
64025;BME280;50266;57.446;26.936;2023-11-22T02:50:05;99957.97;;;-10.15;100.0
64025;BME280;50266;57.446;26.936;2023-11-22T02:51:04;99960.77;;;-10.19;100.0
64025;BME280;50266;57.446;26.936;2023-11-22T02:52:04;99955.84;;;-10.21;100.0
64025;BME280;50266;57.446;26.936;2023-11-22T02:53:05;99958.47;;;-10.21;100.0
64025;BME280;50266;57.446;26.936;2023-11-22T02:54:04;99957.23;;;-10.21;100.0
64025;BME280;50266;57.446;26.936;2023-11-22T02:55:05;99962.63;;;-10.19;100.0
64025;BME280;50266;57.446;26.936;2023-11-22T02:56:05;99960.09;;;-10.11;100.0
64025;BME280;50266;57.446;26.936;2023-11-22T02:57:05;99960.27;;;-10.09;100.0
64025;BME280;50266;57.446;26.936;2023-11-22T02:58:04;99966.93;;;-9.99;100.0
64025;BME280;50266;57.446;26.936;2023-11-22T02:59:04;99962.14;;;-9.94;100.0
64025;BME280;50266;57.446;26.936;2023-11-22T03:00:05;99964.15;;;-9.99;100.0
64025;BME280;50266;57.446;26.936;2023-11-22T03:01:05;99967.72;;;-10.04;100.0
64025;BME280;50266;57.446;26.936;2023-11-22T03:02:05;99961.31;;;-10.08;100.0
64025;BME280;50266;57.446;26.936;2023-11-22T03:03:05;99966.86;;;-10.04;100.0
64025;BME280;50266;57.446;26.936;2023-11-22T03:04:05;99962.8;;;-10.08;100.0
64025;BME280;50266;57.446;26.936;2023-11-22T03:05:05;99968.25;;;-10.13;100.0
64025;BME280;50266;57.446;26.936;2023-11-22T03:06:05;99964.67;;;-10.19;100.0
64025;BME280;50266;57.446;26.936;2023-11-22T03:07:05;99969.3;;;-10.21;100.0
64025;BME280;50266;57.446;26.936;2023-11-22T03:08:05;99965.84;;;-10.22;100.0
64025;BME280;50266;57.446;26.936;2023-11-22T03:09:05;99969.36;;;-10.25;100.0
64025;BME280;50266;57.446;26.936;2023-11-22T03:10:05;99970.28;;;-10.15;100.0
64025;BME280;50266;57.446;26.936;2023-11-22T03:11:05;99975.95;;;-10.2;100.0
64025;BME280;50266;57.446;26.936;2023-11-22T03:12:05;99974.63;;;-10.23;100.0
64025;BME280;50266;57.446;26.936;2023-11-22T03:13:05;99971.91;;;-10.3;100.0
64025;BME280;50266;57.446;26.936;2023-11-22T03:14:05;99971.77;;;-10.33;100.0
64025;BME280;50266;57.446;26.936;2023-11-22T03:15:05;99973.25;;;-10.32;100.0
64025;BME280;50266;57.446;26.936;2023-11-22T03:16:05;99971.09;;;-10.32;100.0
64025;BME280;50266;57.446;26.936;2023-11-22T03:17:05;99970.96;;;-10.33;100.0
64025;BME280;50266;57.446;26.936;2023-11-22T03:18:05;99975.35;;;-10.35;100.0
64025;BME280;50266;57.446;26.936;2023-11-22T03:19:05;99974.3;;;-10.26;100.0
64025;BME280;50266;57.446;26.936;2023-11-22T03:20:05;99973.86;;;-10.26;100.0
64025;BME280;50266;57.446;26.936;2023-11-22T03:21:05;99975.69;;;-10.24;100.0
64025;BME280;50266;57.446;26.936;2023-11-22T03:22:05;99974.03;;;-10.24;100.0
64025;BME280;50266;57.446;26.936;2023-11-22T03:23:05;99976.92;;;-10.22;100.0
64025;BME280;50266;57.446;26.936;2023-11-22T03:24:05;99974.05;;;-10.21;100.0
64025;BME280;50266;57.446;26.936;2023-11-22T03:25:05;99977.69;;;-10.16;100.0
64025;BME280;50266;57.446;26.936;2023-11-22T03:26:05;99978.66;;;-10.12;100.0
64025;BME280;50266;57.446;26.936;2023-11-22T03:27:05;99981.42;;;-10.18;100.0
64025;BME280;50266;57.446;26.936;2023-11-22T03:28:05;99982.19;;;-10.21;100.0
64025;BME280;50266;57.446;26.936;2023-11-22T03:29:05;99979.28;;;-10.22;100.0
64025;BME280;50266;57.446;26.936;2023-11-22T03:30:06;99977.09;;;-10.21;100.0
64025;BME280;50266;57.446;26.936;2023-11-22T03:31:05;99975.05;;;-10.26;100.0
64025;BME280;50266;57.446;26.936;2023-11-22T03:32:06;99974.92;;;-10.27;100.0
64025;BME280;50266;57.446;26.936;2023-11-22T03:33:05;99972.33;;;-10.26;100.0
64025;BME280;50266;57.446;26.936;2023-11-22T03:34:05;99970.18;;;-10.28;100.0
64025;BME280;50266;57.446;26.936;2023-11-22T03:35:06;99972.12;;;-10.27;100.0
64025;BME280;50266;57.446;26.936;2023-11-22T03:36:06;99971.62;;;-10.24;100.0
64025;BME280;50266;57.446;26.936;2023-11-22T03:37:05;99970.34;;;-10.22;100.0
64025;BME280;50266;57.446;26.936;2023-11-22T03:38:05;99971.0;;;-10.19;100.0
64025;BME280;50266;57.446;26.936;2023-11-22T03:39:06;99972.25;;;-10.11;100.0
64025;BME280;50266;57.446;26.936;2023-11-22T03:40:06;99977.07;;;-10.11;100.0
64025;BME280;50266;57.446;26.936;2023-11-22T03:41:06;99974.63;;;-10.1;100.0
64025;BME280;50266;57.446;26.936;2023-11-22T03:42:06;99980.23;;;-10.09;100.0
64025;BME280;50266;57.446;26.936;2023-11-22T03:43:06;99976.3;;;-10.1;100.0
64025;BME280;50266;57.446;26.936;2023-11-22T03:44:06;99982.85;;;-10.11;100.0
64025;BME280;50266;57.446;26.936;2023-11-22T03:45:06;99984.67;;;-10.11;100.0
64025;BME280;50266;57.446;26.936;2023-11-22T03:46:06;99988.95;;;-10.11;100.0
64025;BME280;50266;57.446;26.936;2023-11-22T03:47:06;99990.69;;;-10.13;100.0
64025;BME280;50266;57.446;26.936;2023-11-22T03:48:06;99997.8;;;-10.11;100.0
64025;BME280;50266;57.446;26.936;2023-11-22T03:49:06;99997.03;;;-10.1;100.0
64025;BME280;50266;57.446;26.936;2023-11-22T03:50:06;99998.5;;;-10.06;100.0
64025;BME280;50266;57.446;26.936;2023-11-22T03:51:06;99995.19;;;-10.04;100.0
64025;BME280;50266;57.446;26.936;2023-11-22T03:52:06;99998.72;;;-10.02;100.0
64025;BME280;50266;57.446;26.936;2023-11-22T03:53:06;99999.25;;;-10.0;100.0
64025;BME280;50266;57.446;26.936;2023-11-22T03:54:06;100000.58;;;-10.03;100.0
64025;BME280;50266;57.446;26.936;2023-11-22T03:55:06;100000.39;;;-10.02;100.0
64025;BME280;50266;57.446;26.936;2023-11-22T03:56:06;100001.97;;;-9.98;100.0
64025;BME280;50266;57.446;26.936;2023-11-22T03:57:06;100012.32;;;-9.98;100.0
64025;BME280;50266;57.446;26.936;2023-11-22T03:58:06;100010.66;;;-10.0;100.0
64025;BME280;50266;57.446;26.936;2023-11-22T03:59:06;100009.16;;;-9.96;100.0
64025;BME280;50266;57.446;26.936;2023-11-22T04:00:06;100008.61;;;-9.98;100.0
64025;BME280;50266;57.446;26.936;2023-11-22T04:01:06;100009.45;;;-9.99;100.0
64025;BME280;50266;57.446;26.936;2023-11-22T04:02:06;100015.12;;;-9.99;100.0
64025;BME280;50266;57.446;26.936;2023-11-22T04:03:06;100013.25;;;-9.99;100.0
64025;BME280;50266;57.446;26.936;2023-11-22T04:04:06;100017.35;;;-9.98;100.0
64025;BME280;50266;57.446;26.936;2023-11-22T04:05:06;100017.3;;;-9.96;100.0
64025;BME280;50266;57.446;26.936;2023-11-22T04:06:06;100021.58;;;-9.92;100.0
64025;BME280;50266;57.446;26.936;2023-11-22T04:07:06;100023.2;;;-9.92;100.0
64025;BME280;50266;57.446;26.936;2023-11-22T04:08:06;100019.97;;;-9.95;100.0
64025;BME280;50266;57.446;26.936;2023-11-22T04:09:06;100022.43;;;-9.93;100.0
64025;BME280;50266;57.446;26.936;2023-11-22T04:10:06;100028.27;;;-9.9;100.0
64025;BME280;50266;57.446;26.936;2023-11-22T04:11:06;100026.69;;;-9.91;100.0
64025;BME280;50266;57.446;26.936;2023-11-22T04:12:06;100020.02;;;-9.95;100.0
64025;BME280;50266;57.446;26.936;2023-11-22T04:13:06;100019.61;;;-9.88;100.0
64025;BME280;50266;57.446;26.936;2023-11-22T04:14:06;100023.55;;;-9.84;100.0
64025;BME280;50266;57.446;26.936;2023-11-22T04:15:06;100020.01;;;-9.82;100.0
64025;BME280;50266;57.446;26.936;2023-11-22T04:16:06;100021.95;;;-9.8;100.0
64025;BME280;50266;57.446;26.936;2023-11-22T04:17:06;100017.73;;;-9.79;100.0
64025;BME280;50266;57.446;26.936;2023-11-22T04:18:06;100016.16;;;-9.8;100.0
64025;BME280;50266;57.446;26.936;2023-11-22T04:19:06;100019.69;;;-9.72;100.0
64025;BME280;50266;57.446;26.936;2023-11-22T04:20:07;100022.58;;;-9.72;100.0
64025;BME280;50266;57.446;26.936;2023-11-22T04:21:06;100021.0;;;-9.73;100.0
64025;BME280;50266;57.446;26.936;2023-11-22T04:22:06;100022.34;;;-9.77;100.0
64025;BME280;50266;57.446;26.936;2023-11-22T04:23:06;100023.38;;;-9.8;100.0
64025;BME280;50266;57.446;26.936;2023-11-22T04:24:06;100022.47;;;-9.82;100.0
64025;BME280;50266;57.446;26.936;2023-11-22T04:25:07;100022.07;;;-9.85;100.0
64025;BME280;50266;57.446;26.936;2023-11-22T04:26:06;100022.94;;;-9.85;100.0
64025;BME280;50266;57.446;26.936;2023-11-22T04:27:06;100028.06;;;-9.77;100.0
64025;BME280;50266;57.446;26.936;2023-11-22T04:28:06;100026.84;;;-9.77;100.0
64025;BME280;50266;57.446;26.936;2023-11-22T04:29:06;100031.62;;;-9.81;100.0
64025;BME280;50266;57.446;26.936;2023-11-22T04:30:07;100030.13;;;-9.78;100.0
64025;BME280;50266;57.446;26.936;2023-11-22T04:31:06;100028.66;;;-9.77;100.0
64025;BME280;50266;57.446;26.936;2023-11-22T04:32:06;100028.19;;;-9.79;100.0
64025;BME280;50266;57.446;26.936;2023-11-22T04:33:06;100032.84;;;-9.75;100.0
64025;BME280;50266;57.446;26.936;2023-11-22T04:34:06;100027.48;;;-9.75;100.0
64025;BME280;50266;57.446;26.936;2023-11-22T04:35:07;100033.81;;;-9.76;100.0
64025;BME280;50266;57.446;26.936;2023-11-22T04:36:07;100033.29;;;-9.76;100.0
64025;BME280;50266;57.446;26.936;2023-11-22T04:37:06;100038.19;;;-9.77;100.0
64025;BME280;50266;57.446;26.936;2023-11-22T04:38:06;100036.71;;;-9.76;100.0
64025;BME280;50266;57.446;26.936;2023-11-22T04:39:06;100038.5;;;-9.74;100.0
64025;BME280;50266;57.446;26.936;2023-11-22T04:40:07;100038.55;;;-9.7;100.0
64025;BME280;50266;57.446;26.936;2023-11-22T04:41:06;100038.09;;;-9.66;100.0
64025;BME280;50266;57.446;26.936;2023-11-22T04:42:06;100038.48;;;-9.66;100.0
64025;BME280;50266;57.446;26.936;2023-11-22T04:43:06;100040.5;;;-9.58;100.0
64025;BME280;50266;57.446;26.936;2023-11-22T04:44:06;100040.73;;;-9.57;100.0
64025;BME280;50266;57.446;26.936;2023-11-22T04:45:07;100040.94;;;-9.54;100.0
64025;BME280;50266;57.446;26.936;2023-11-22T04:46:07;100040.48;;;-9.5;100.0
64025;BME280;50266;57.446;26.936;2023-11-22T04:47:07;100045.47;;;-9.43;100.0
64025;BME280;50266;57.446;26.936;2023-11-22T04:48:07;100038.41;;;-9.43;100.0
64025;BME280;50266;57.446;26.936;2023-11-22T04:49:07;100032.7;;;-9.36;100.0
64025;BME280;50266;57.446;26.936;2023-11-22T04:50:07;100030.38;;;-9.35;100.0
64025;BME280;50266;57.446;26.936;2023-11-22T04:51:07;100031.61;;;-9.37;100.0
64025;BME280;50266;57.446;26.936;2023-11-22T04:52:07;100032.38;;;-9.39;100.0
64025;BME280;50266;57.446;26.936;2023-11-22T04:53:07;100027.89;;;-9.41;100.0
64025;BME280;50266;57.446;26.936;2023-11-22T04:54:07;100026.38;;;-9.44;100.0
64025;BME280;50266;57.446;26.936;2023-11-22T04:55:07;100024.7;;;-9.42;100.0
64025;BME280;50266;57.446;26.936;2023-11-22T04:56:07;100019.11;;;-9.49;100.0
64025;BME280;50266;57.446;26.936;2023-11-22T04:57:07;100019.72;;;-9.54;100.0
64025;BME280;50266;57.446;26.936;2023-11-22T04:58:07;100016.51;;;-9.57;100.0
64025;BME280;50266;57.446;26.936;2023-11-22T04:59:07;100024.33;;;-9.59;100.0
64025;BME280;50266;57.446;26.936;2023-11-22T05:00:07;100023.7;;;-9.61;100.0
64025;BME280;50266;57.446;26.936;2023-11-22T05:01:07;100019.56;;;-9.64;100.0
64025;BME280;50266;57.446;26.936;2023-11-22T05:02:07;100026.46;;;-9.69;100.0
64025;BME280;50266;57.446;26.936;2023-11-22T05:03:07;100028.53;;;-9.69;100.0
64025;BME280;50266;57.446;26.936;2023-11-22T05:04:07;100030.64;;;-9.73;100.0
64025;BME280;50266;57.446;26.936;2023-11-22T05:05:07;100035.2;;;-9.78;100.0
64025;BME280;50266;57.446;26.936;2023-11-22T05:06:07;100034.25;;;-9.84;100.0
64025;BME280;50266;57.446;26.936;2023-11-22T05:07:07;100035.3;;;-9.86;100.0
64025;BME280;50266;57.446;26.936;2023-11-22T05:08:07;100030.45;;;-9.84;100.0
64025;BME280;50266;57.446;26.936;2023-11-22T05:09:07;100030.44;;;-9.87;100.0
64025;BME280;50266;57.446;26.936;2023-11-22T05:10:07;100030.8;;;-9.87;100.0
64025;BME280;50266;57.446;26.936;2023-11-22T05:11:07;100029.44;;;-9.89;100.0
64025;BME280;50266;57.446;26.936;2023-11-22T05:12:07;100024.84;;;-9.86;100.0
64025;BME280;50266;57.446;26.936;2023-11-22T05:13:07;100023.75;;;-9.89;100.0